Portada
METAR-TAF:

METAR-TAF

Aeroports :

Maurici, Maurici

latitud: 20-26S, longitud: 057-40E, altitud: 55 m

Observació

L'informe es va fer fa 45 minuts, a les 20:00 UTC
Vent 7 kt del Est
Temperatura 26°C
Humitat 84%
Pressió 1017 hPa
Visibilitat 10 km o més
Núvols disperses a una alçada de 1600 ft

METAR: FIMP 192000Z 10007KT 9999 SCT016 26/23 Q1017

Hora: 00:45 (20:45 UTC)

Pronòstic

L'informe es va fer fa 3 hores i 25 minuts, a les 17:20 UTC
Pronòstic vàlid del 19 a les 18 UTC al 21 a les 00 UTC
Vent 6 kt del Est
Visibilitat 10 km o més
Núvols disperses a una alçada de 1600 ft
Probabilitat 30% :
Temporalment
l' 20 a les 00 UTC al 20 a les 04 UTC
Visibilitat: 7000 m
Escasses núvols a una alçada de 1000 ft
Cel ennuvolat a una alçada de 1500 ft
xàfecs de pluja

TAF: FIMP 191720Z 1918/2100 10006KT 9999 SCT016 PROB30 TEMPO 2000/2004 7000 -SHRA FEW010 BKN015

Observacions i pronòstics meteorològics de més de 4000 aeroports (METAR i TAF).

Les estacions disponibles són els punts grocs i vermells al mapa.

Posi el ratolí al punt desitjat per veure el nom de l'estació.

Feu clic per veure les observacions i els pronòstics meteorològics.

Per canviar el mapa: feu clic els botons verds amb una creu de color negre per apropar; al botó verd amb un guió per allunyar la imatge; o en les fletxes verdes per a mapes adjacents.


METAR-TAF: